createdAt,value
2022-09-06T00:04:27.693Z,4.30
2022-09-06T00:09:30.790Z,4.30
2022-09-06T00:14:36.935Z,3.90
2022-09-06T00:19:40.045Z,3.90
2022-09-06T00:24:43.182Z,4.00
2022-09-06T00:29:46.242Z,4.40
2022-09-06T00:34:52.608Z,3.90
2022-09-06T00:39:55.733Z,4.30
2022-09-06T00:44:59.855Z,3.80
2022-09-06T00:50:04.292Z,4.30
2022-09-06T00:55:10.571Z,3.80
2022-09-06T01:00:14.176Z,4.00
2022-09-06T01:11:03.454Z,4.20
2022-09-06T01:16:35.745Z,4.50
2022-09-06T01:22:02.071Z,4.80
2022-09-06T01:27:29.694Z,4.30
2022-09-06T01:33:02.031Z,4.30
2022-09-06T01:38:08.768Z,4.20
2022-09-06T01:43:18.927Z,4.30
2022-09-06T01:48:46.136Z,4.10
2022-09-06T01:54:27.358Z,4.50
2022-09-06T02:00:12.213Z,4.80
2022-09-06T02:05:38.028Z,3.90
2022-09-06T02:10:52.293Z,4.60
2022-09-06T02:16:05.135Z,4.10
2022-09-06T02:21:10.618Z,4.00
2022-09-06T02:26:22.294Z,4.40
2022-09-06T02:31:53.476Z,4.60
2022-09-06T02:36:56.935Z,4.70
2022-09-06T02:42:05.210Z,4.70
2022-09-06T02:47:08.409Z,4.00
2022-09-06T02:52:12.157Z,3.90
2022-09-06T02:57:15.676Z,4.10
2022-09-06T03:02:18.873Z,4.60
2022-09-06T03:07:22.114Z,3.80
2022-09-06T03:12:25.175Z,3.90
2022-09-06T03:17:28.481Z,4.10
2022-09-06T03:22:31.593Z,3.90
2022-09-06T03:27:35.283Z,3.70
2022-09-06T03:37:44.173Z,3.50
2022-09-06T03:42:47.207Z,4.00
2022-09-06T03:47:50.299Z,4.00
2022-09-06T03:52:53.372Z,4.20
2022-09-06T03:57:56.438Z,4.20
2022-09-06T04:03:01.851Z,4.30
2022-09-06T04:08:06.334Z,3.90
2022-09-06T04:13:09.378Z,4.60
2022-09-06T04:18:12.461Z,4.70
2022-09-06T04:23:16.683Z,4.90
2022-09-06T04:28:20.246Z,4.70
2022-09-06T04:33:29.453Z,5.20
2022-09-06T04:38:40.687Z,4.50
2022-09-06T04:43:43.810Z,4.10
2022-09-06T04:48:49.164Z,4.10
2022-09-06T04:53:52.679Z,4.90
2022-09-06T04:58:56.000Z,4.90
2022-09-06T05:03:59.099Z,4.30
2022-09-06T05:09:02.136Z,3.90
2022-09-06T05:14:05.230Z,3.80
2022-09-06T05:19:08.255Z,3.50
2022-09-06T05:24:12.105Z,4.80
2022-09-06T05:29:15.230Z,4.20
2022-09-06T05:34:18.365Z,3.80
2022-09-06T05:39:22.183Z,4.30
2022-09-06T05:44:25.317Z,4.00
2022-09-06T05:49:32.360Z,3.70
2022-09-06T05:54:35.416Z,3.40
2022-09-06T05:59:38.467Z,3.40
2022-09-06T06:04:44.656Z,3.80
2022-09-06T06:09:47.743Z,3.80
2022-09-06T06:14:50.790Z,3.60
2022-09-06T06:19:54.920Z,2.60
2022-09-06T06:24:57.957Z,3.10
2022-09-06T06:30:01.010Z,3.10
2022-09-06T06:35:04.450Z,3.20
2022-09-06T06:45:11.773Z,3.00
2022-09-06T06:50:14.995Z,3.00
2022-09-06T06:55:18.056Z,2.50
2022-09-06T07:00:24.051Z,2.30
2022-09-06T07:10:52.605Z,2.10
2022-09-06T07:16:19.707Z,1.90
2022-09-06T07:21:42.512Z,2.40
2022-09-06T07:32:12.124Z,2.00
2022-09-06T07:37:15.728Z,1.60
2022-09-06T07:42:18.978Z,1.50
2022-09-06T07:58:08.435Z,1.90
2022-09-06T08:03:11.607Z,2.00
2022-09-06T08:13:38.363Z,2.50
2022-09-06T08:18:42.316Z,2.00
2022-09-06T08:23:51.666Z,1.80
2022-09-06T08:28:57.641Z,2.20
2022-09-06T08:34:01.858Z,1.80
2022-09-06T08:39:07.609Z,2.00
2022-09-06T08:55:36.837Z,1.70
2022-09-06T09:00:42.279Z,1.80
2022-09-06T09:05:52.583Z,1.80
2022-09-06T09:11:06.956Z,2.00
2022-09-06T09:16:10.236Z,1.60
2022-09-06T09:26:17.423Z,1.80
2022-09-06T09:31:39.047Z,1.80
2022-09-06T09:42:07.532Z,1.80
2022-09-06T09:47:33.238Z,1.90
2022-09-06T09:52:44.442Z,1.60
2022-09-06T09:57:51.079Z,1.90
2022-09-06T10:02:54.173Z,1.60
2022-09-06T10:07:59.119Z,1.70
2022-09-06T10:13:29.813Z,1.50
2022-09-06T10:18:44.118Z,1.80
2022-09-06T10:24:26.991Z,1.80
2022-09-06T10:29:45.887Z,1.60
2022-09-06T10:35:13.253Z,1.40
2022-09-06T10:40:30.952Z,1.90
2022-09-06T10:46:16.158Z,1.60
2022-09-06T10:51:50.384Z,1.20
2022-09-06T10:56:56.986Z,1.60
2022-09-06T11:02:24.022Z,1.50
2022-09-06T11:07:34.609Z,1.60
2022-09-06T11:12:46.267Z,1.70
2022-09-06T11:18:21.272Z,1.80
2022-09-06T11:23:40.193Z,1.40
2022-09-06T11:28:52.630Z,1.90
2022-09-06T11:34:11.785Z,1.60
2022-09-06T11:44:50.191Z,1.60
2022-09-06T11:49:53.351Z,1.60
2022-09-06T12:00:04.714Z,1.40
2022-09-06T12:05:13.022Z,1.40
2022-09-06T12:10:31.285Z,1.40
2022-09-06T12:15:52.197Z,1.20
2022-09-06T12:20:55.311Z,1.70
2022-09-06T12:25:58.967Z,1.40
2022-09-06T12:31:25.914Z,1.50
2022-09-06T12:36:32.159Z,1.40
2022-09-06T12:41:43.841Z,1.60
2022-09-06T12:46:52.166Z,1.40
2022-09-06T12:52:13.069Z,1.30
2022-09-06T12:57:24.569Z,1.20
2022-09-06T13:02:53.490Z,1.40
2022-09-06T13:08:02.062Z,1.30
2022-09-06T13:13:05.302Z,1.20
2022-09-06T13:23:51.111Z,1.00
2022-09-06T13:28:54.193Z,1.20
2022-09-06T13:33:59.833Z,1.30
2022-09-06T13:39:04.684Z,1.20
2022-09-06T13:44:17.284Z,1.30
2022-09-06T13:49:20.406Z,1.40
2022-09-06T13:59:26.790Z,1.20
2022-09-06T14:04:29.989Z,1.30
2022-09-06T14:14:36.684Z,1.30
2022-09-06T14:19:40.802Z,1.40
2022-09-06T14:24:43.992Z,1.30
2022-09-06T14:44:55.764Z,1.20
2022-09-06T14:50:00.826Z,1.40
2022-09-06T14:55:04.886Z,1.30
2022-09-06T15:00:09.285Z,1.90
2022-09-06T15:05:12.371Z,1.70
2022-09-06T15:10:15.485Z,2.10
2022-09-06T15:15:18.636Z,4.00
2022-09-06T15:20:21.712Z,2.10
2022-09-06T15:25:24.842Z,1.50
2022-09-06T15:30:27.920Z,1.30
2022-09-06T15:35:34.336Z,2.10
2022-09-06T15:40:38.199Z,1.80
2022-09-06T15:45:50.714Z,1.40
2022-09-06T15:50:54.043Z,1.40
2022-09-06T16:01:18.790Z,3.20
2022-09-06T16:06:28.210Z,2.60
2022-09-06T16:11:33.655Z,1.40
2022-09-06T16:16:37.558Z,1.40
2022-09-06T16:21:43.221Z,1.50
2022-09-06T16:26:46.871Z,1.60
2022-09-06T16:31:59.836Z,1.50
2022-09-06T16:42:12.688Z,1.60
2022-09-06T16:47:16.736Z,1.80
2022-09-06T16:52:20.407Z,3.40
2022-09-06T16:57:26.395Z,2.90
2022-09-06T17:02:29.540Z,2.30
2022-09-06T17:07:33.129Z,3.10
2022-09-06T17:12:36.184Z,3.40
2022-09-06T17:17:39.258Z,4.50
2022-09-06T17:22:42.329Z,8.10
2022-09-06T17:27:45.429Z,17.40
2022-09-06T17:32:48.645Z,14.20
2022-09-06T17:37:51.964Z,4.90
2022-09-06T17:48:03.331Z,13.30
2022-09-06T17:53:06.487Z,8.00
2022-09-06T17:58:09.586Z,7.90
2022-09-06T18:03:12.737Z,9.00
2022-09-06T18:08:15.848Z,9.40
2022-09-06T18:13:19.844Z,13.40
2022-09-06T18:18:26.185Z,12.70
2022-09-06T18:23:31.175Z,5.80
2022-09-06T18:28:37.233Z,5.10
2022-09-06T18:33:42.620Z,5.30
2022-09-06T18:38:46.311Z,7.70
2022-09-06T18:43:49.769Z,7.10
2022-09-06T18:53:58.591Z,4.30
2022-09-06T18:59:02.326Z,4.60
2022-09-06T19:09:14.289Z,4.30
2022-09-06T19:14:18.303Z,4.90
2022-09-06T19:19:22.899Z,4.90
2022-09-06T19:24:26.089Z,7.80
2022-09-06T19:29:29.279Z,10.60
2022-09-06T19:34:33.932Z,7.00
2022-09-06T19:39:37.494Z,4.90
2022-09-06T19:44:40.753Z,5.20
2022-09-06T19:49:43.919Z,4.80
2022-09-06T19:54:47.028Z,5.10
2022-09-06T19:59:50.236Z,5.80
2022-09-06T20:04:53.269Z,5.00
2022-09-06T20:09:56.665Z,4.60
2022-09-06T20:14:59.792Z,4.90
2022-09-06T20:20:04.517Z,5.80
2022-09-06T20:25:08.868Z,4.60
2022-09-06T20:30:12.502Z,4.50
2022-09-06T20:35:15.627Z,4.70
2022-09-06T20:40:18.725Z,4.40
2022-09-06T20:45:25.387Z,4.50
2022-09-06T20:50:29.105Z,5.10
2022-09-06T20:55:32.185Z,4.90
2022-09-06T21:00:40.090Z,4.60
2022-09-06T21:05:44.071Z,4.80
2022-09-06T21:10:47.158Z,5.60
2022-09-06T21:15:50.314Z,5.40
2022-09-06T21:20:56.589Z,5.90
2022-09-06T21:26:06.089Z,5.00
2022-09-06T21:31:11.982Z,5.90
2022-09-06T21:36:41.700Z,5.00
2022-09-06T21:41:44.895Z,4.80
2022-09-06T21:46:48.067Z,4.60
2022-09-06T21:51:52.137Z,4.80
2022-09-06T21:56:55.199Z,5.20
2022-09-06T22:01:58.963Z,5.00
2022-09-06T22:07:02.088Z,4.40
2022-09-06T22:12:05.603Z,5.30
2022-09-06T22:17:11.273Z,5.30
2022-09-06T22:22:14.690Z,5.50
2022-09-06T22:27:17.792Z,4.90
2022-09-06T22:32:21.512Z,4.70
2022-09-06T22:37:25.013Z,4.90
2022-09-06T22:42:28.528Z,5.00
2022-09-06T22:52:34.607Z,5.50
2022-09-06T22:57:37.753Z,5.20
2022-09-06T23:02:40.830Z,5.10
2022-09-06T23:07:43.990Z,4.60
2022-09-06T23:12:47.276Z,5.10
2022-09-06T23:17:50.768Z,5.40
2022-09-06T23:22:53.858Z,5.30
2022-09-06T23:28:00.502Z,5.60
2022-09-06T23:33:04.003Z,4.90
2022-09-06T23:38:07.080Z,5.80
2022-09-06T23:43:10.175Z,5.30
2022-09-06T23:48:13.272Z,5.30
2022-09-06T23:53:18.387Z,5.00
2022-09-06T23:58:21.465Z,5.60
